sensor_id;sensor_type;location;lat;lon;timestamp;pressure;altitude;pressure_sealevel;temperature;humidity
55576;BME280;41437;45.478;9.116;2022-09-14T00:00:06;99530.03;;;22.08;67.02
55576;BME280;41437;45.478;9.116;2022-09-14T00:03:09;99511.53;;;22.16;67.10
55576;BME280;41437;45.478;9.116;2022-09-14T00:06:14;99513.03;;;22.14;66.96
55576;BME280;41437;45.478;9.116;2022-09-14T00:09:19;99518.47;;;22.10;67.58
55576;BME280;41437;45.478;9.116;2022-09-14T00:12:21;99524.66;;;22.03;68.03
55576;BME280;41437;45.478;9.116;2022-09-14T00:15:24;99507.69;;;22.00;67.79
55576;BME280;41437;45.478;9.116;2022-09-14T00:18:27;99494.25;;;22.05;68.07
55576;BME280;41437;45.478;9.116;2022-09-14T00:21:29;99479.06;;;22.06;68.16
55576;BME280;41437;45.478;9.116;2022-09-14T00:24:30;99488.66;;;22.05;68.05
55576;BME280;41437;45.478;9.116;2022-09-14T00:27:34;99485.78;;;21.93;68.97
55576;BME280;41437;45.478;9.116;2022-09-14T00:30:40;99476.44;;;21.89;69.16
55576;BME280;41437;45.478;9.116;2022-09-14T00:33:44;99473.16;;;21.87;68.86
55576;BME280;41437;45.478;9.116;2022-09-14T00:36:48;99472.47;;;21.90;69.28
55576;BME280;41437;45.478;9.116;2022-09-14T00:39:49;99462.41;;;21.89;69.67
55576;BME280;41437;45.478;9.116;2022-09-14T00:42:51;99468.00;;;21.89;69.50
55576;BME280;41437;45.478;9.116;2022-09-14T00:45:53;99486.91;;;21.80;70.20
55576;BME280;41437;45.478;9.116;2022-09-14T00:48:58;99484.31;;;21.75;70.17
55576;BME280;41437;45.478;9.116;2022-09-14T00:52:04;99471.72;;;21.81;70.38
55576;BME280;41437;45.478;9.116;2022-09-14T00:55:10;99480.84;;;21.78;70.48
55576;BME280;41437;45.478;9.116;2022-09-14T00:58:12;99478.84;;;21.78;70.66
55576;BME280;41437;45.478;9.116;2022-09-14T01:01:14;99450.94;;;21.82;70.40
55576;BME280;41437;45.478;9.116;2022-09-14T01:04:17;99445.34;;;21.82;70.51
55576;BME280;41437;45.478;9.116;2022-09-14T01:07:22;99451.75;;;21.82;71.14
55576;BME280;41437;45.478;9.116;2022-09-14T01:10:35;99442.31;;;21.87;70.41
55576;BME280;41437;45.478;9.116;2022-09-14T01:13:45;99416.56;;;21.85;70.64
55576;BME280;41437;45.478;9.116;2022-09-14T01:16:57;99397.16;;;21.80;70.82
55576;BME280;41437;45.478;9.116;2022-09-14T01:20:13;99386.13;;;21.63;72.08
55576;BME280;41437;45.478;9.116;2022-09-14T01:23:23;99410.47;;;21.71;72.02
55576;BME280;41437;45.478;9.116;2022-09-14T01:26:46;99423.91;;;21.65;72.20
55576;BME280;41437;45.478;9.116;2022-09-14T01:30:00;99413.94;;;21.55;72.19
55576;BME280;41437;45.478;9.116;2022-09-14T01:33:08;99432.63;;;21.64;72.10
55576;BME280;41437;45.478;9.116;2022-09-14T01:36:13;99421.31;;;21.72;71.83
55576;BME280;41437;45.478;9.116;2022-09-14T01:39:17;99416.06;;;21.71;71.72
55576;BME280;41437;45.478;9.116;2022-09-14T01:42:20;99422.03;;;21.69;72.33
55576;BME280;41437;45.478;9.116;2022-09-14T01:45:24;99418.19;;;21.74;72.48
55576;BME280;41437;45.478;9.116;2022-09-14T01:48:31;99414.91;;;21.72;72.63
55576;BME280;41437;45.478;9.116;2022-09-14T01:51:39;99402.06;;;21.71;72.24
55576;BME280;41437;45.478;9.116;2022-09-14T01:54:45;99393.19;;;21.69;72.56
55576;BME280;41437;45.478;9.116;2022-09-14T01:57:51;99388.97;;;21.75;72.85
55576;BME280;41437;45.478;9.116;2022-09-14T02:00:57;99384.50;;;21.62;73.05
55576;BME280;41437;45.478;9.116;2022-09-14T02:04:02;99393.13;;;21.56;73.92
55576;BME280;41437;45.478;9.116;2022-09-14T02:07:06;99392.47;;;21.60;73.34
55576;BME280;41437;45.478;9.116;2022-09-14T02:10:10;99367.31;;;21.51;73.49
55576;BME280;41437;45.478;9.116;2022-09-14T02:13:12;99360.63;;;21.43;74.05
55576;BME280;41437;45.478;9.116;2022-09-14T02:16:15;99373.47;;;21.44;74.21
55576;BME280;41437;45.478;9.116;2022-09-14T02:19:18;99367.19;;;21.47;74.60
55576;BME280;41437;45.478;9.116;2022-09-14T02:22:19;99375.25;;;21.49;73.79
55576;BME280;41437;45.478;9.116;2022-09-14T02:25:21;99381.53;;;21.46;74.38
55576;BME280;41437;45.478;9.116;2022-09-14T02:28:23;99389.75;;;21.51;74.04
55576;BME280;41437;45.478;9.116;2022-09-14T02:31:33;99384.00;;;21.47;73.96
55576;BME280;41437;45.478;9.116;2022-09-14T02:34:45;99394.22;;;21.64;74.13
55576;BME280;41437;45.478;9.116;2022-09-14T02:37:58;99381.63;;;21.70;74.11
55576;BME280;41437;45.478;9.116;2022-09-14T02:41:06;99387.91;;;21.67;74.21
55576;BME280;41437;45.478;9.116;2022-09-14T02:44:17;99396.31;;;21.67;73.95
55576;BME280;41437;45.478;9.116;2022-09-14T02:47:28;99383.38;;;21.75;73.52
55576;BME280;41437;45.478;9.116;2022-09-14T02:50:35;99389.13;;;21.78;73.51
55576;BME280;41437;45.478;9.116;2022-09-14T02:53:43;99385.41;;;21.87;73.43
55576;BME280;41437;45.478;9.116;2022-09-14T02:56:48;99384.81;;;21.93;73.30
55576;BME280;41437;45.478;9.116;2022-09-14T02:59:52;99385.44;;;21.99;73.18
55576;BME280;41437;45.478;9.116;2022-09-14T03:02:56;99390.69;;;22.00;72.83
55576;BME280;41437;45.478;9.116;2022-09-14T03:05:58;99380.28;;;22.01;72.35
55576;BME280;41437;45.478;9.116;2022-09-14T03:08:59;99376.06;;;21.95;72.62
55576;BME280;41437;45.478;9.116;2022-09-14T03:12:01;99369.66;;;21.94;72.70
55576;BME280;41437;45.478;9.116;2022-09-14T03:15:03;99364.50;;;21.96;73.55
55576;BME280;41437;45.478;9.116;2022-09-14T03:18:06;99355.59;;;21.82;73.91
55576;BME280;41437;45.478;9.116;2022-09-14T03:21:10;99365.75;;;21.74;74.14
55576;BME280;41437;45.478;9.116;2022-09-14T03:24:11;99372.66;;;21.77;74.52
55576;BME280;41437;45.478;9.116;2022-09-14T03:27:13;99380.34;;;21.80;74.24
55576;BME280;41437;45.478;9.116;2022-09-14T03:30:15;99364.88;;;21.62;75.10
55576;BME280;41437;45.478;9.116;2022-09-14T03:33:18;99357.59;;;21.48;74.63
55576;BME280;41437;45.478;9.116;2022-09-14T03:36:20;99371.19;;;21.58;74.91
55576;BME280;41437;45.478;9.116;2022-09-14T03:39:22;99367.25;;;21.72;74.61
55576;BME280;41437;45.478;9.116;2022-09-14T03:42:23;99364.09;;;21.73;73.85
55576;BME280;41437;45.478;9.116;2022-09-14T03:45:25;99365.34;;;21.64;74.35
55576;BME280;41437;45.478;9.116;2022-09-14T03:48:29;99366.06;;;21.61;74.17
55576;BME280;41437;45.478;9.116;2022-09-14T03:51:32;99372.75;;;21.68;74.83
55576;BME280;41437;45.478;9.116;2022-09-14T03:54:34;99372.16;;;21.75;74.51
55576;BME280;41437;45.478;9.116;2022-09-14T03:57:36;99377.22;;;21.81;74.47
55576;BME280;41437;45.478;9.116;2022-09-14T04:00:39;99380.13;;;21.85;74.24
55576;BME280;41437;45.478;9.116;2022-09-14T04:03:42;99351.97;;;21.81;73.35
55576;BME280;41437;45.478;9.116;2022-09-14T04:06:43;99334.03;;;21.62;73.95
55576;BME280;41437;45.478;9.116;2022-09-14T04:09:45;99333.41;;;21.44;74.70
55576;BME280;41437;45.478;9.116;2022-09-14T04:12:46;99346.66;;;21.55;74.79
55576;BME280;41437;45.478;9.116;2022-09-14T04:15:55;99355.09;;;21.80;74.26
55576;BME280;41437;45.478;9.116;2022-09-14T04:18:58;99350.47;;;21.96;73.90
55576;BME280;41437;45.478;9.116;2022-09-14T04:22:00;99330.94;;;21.88;73.40
55576;BME280;41437;45.478;9.116;2022-09-14T04:25:02;99314.22;;;21.79;73.79
55576;BME280;41437;45.478;9.116;2022-09-14T04:28:03;99325.06;;;21.80;74.48
55576;BME280;41437;45.478;9.116;2022-09-14T04:31:07;99303.34;;;21.65;74.25
55576;BME280;41437;45.478;9.116;2022-09-14T04:34:11;99314.91;;;21.76;74.38
55576;BME280;41437;45.478;9.116;2022-09-14T04:37:13;99339.59;;;21.95;74.82
55576;BME280;41437;45.478;9.116;2022-09-14T04:40:15;99353.53;;;22.03;74.15
55576;BME280;41437;45.478;9.116;2022-09-14T04:43:17;99345.56;;;22.05;74.21
55576;BME280;41437;45.478;9.116;2022-09-14T04:46:21;99322.41;;;21.96;73.52
55576;BME280;41437;45.478;9.116;2022-09-14T04:49:24;99327.22;;;22.08;73.50
55576;BME280;41437;45.478;9.116;2022-09-14T04:52:25;99305.13;;;21.82;73.58
55576;BME280;41437;45.478;9.116;2022-09-14T04:55:27;99322.78;;;21.95;73.74
55576;BME280;41437;45.478;9.116;2022-09-14T04:58:29;99324.03;;;21.97;73.72
55576;BME280;41437;45.478;9.116;2022-09-14T05:01:32;99310.75;;;21.94;73.45
55576;BME280;41437;45.478;9.116;2022-09-14T05:04:36;99310.13;;;22.01;73.18
55576;BME280;41437;45.478;9.116;2022-09-14T05:07:37;99305.34;;;22.01;73.23
55576;BME280;41437;45.478;9.116;2022-09-14T05:10:39;99303.22;;;21.98;73.58
55576;BME280;41437;45.478;9.116;2022-09-14T05:13:41;99289.94;;;21.95;73.49
55576;BME280;41437;45.478;9.116;2022-09-14T05:16:43;99257.78;;;21.80;73.65
55576;BME280;41437;45.478;9.116;2022-09-14T05:19:46;99279.16;;;21.97;74.45
55576;BME280;41437;45.478;9.116;2022-09-14T05:22:48;99296.97;;;22.14;73.90
55576;BME280;41437;45.478;9.116;2022-09-14T05:25:51;99271.81;;;22.05;73.95
55576;BME280;41437;45.478;9.116;2022-09-14T05:28:54;99281.31;;;22.13;73.85
55576;BME280;41437;45.478;9.116;2022-09-14T05:31:56;99301.53;;;22.30;73.46
55576;BME280;41437;45.478;9.116;2022-09-14T05:34:59;99284.81;;;22.22;73.05
55576;BME280;41437;45.478;9.116;2022-09-14T05:38:01;99289.72;;;22.25;73.89
55576;BME280;41437;45.478;9.116;2022-09-14T05:41:03;99307.25;;;22.34;73.64
55576;BME280;41437;45.478;9.116;2022-09-14T05:44:05;99287.25;;;22.23;73.99
55576;BME280;41437;45.478;9.116;2022-09-14T05:47:07;99311.00;;;22.38;73.70
55576;BME280;41437;45.478;9.116;2022-09-14T05:50:10;99303.03;;;22.40;73.46
55576;BME280;41437;45.478;9.116;2022-09-14T05:53:12;99314.59;;;22.51;73.83
55576;BME280;41437;45.478;9.116;2022-09-14T05:56:14;99308.63;;;22.52;74.21
55576;BME280;41437;45.478;9.116;2022-09-14T05:59:15;99313.06;;;22.53;73.90
55576;BME280;41437;45.478;9.116;2022-09-14T06:02:17;99319.34;;;22.63;74.02
55576;BME280;41437;45.478;9.116;2022-09-14T06:05:20;99304.84;;;22.73;75.50
55576;BME280;41437;45.478;9.116;2022-09-14T06:08:24;99307.13;;;22.83;74.12
55576;BME280;41437;45.478;9.116;2022-09-14T06:11:29;99321.19;;;22.95;74.72
55576;BME280;41437;45.478;9.116;2022-09-14T06:14:31;99320.78;;;23.09;73.39
55576;BME280;41437;45.478;9.116;2022-09-14T06:17:33;99325.06;;;23.19;73.07
55576;BME280;41437;45.478;9.116;2022-09-14T06:20:36;99313.88;;;23.35;72.36
55576;BME280;41437;45.478;9.116;2022-09-14T06:23:37;99313.00;;;23.62;71.54
55576;BME280;41437;45.478;9.116;2022-09-14T06:26:39;99318.84;;;23.85;69.77
55576;BME280;41437;45.478;9.116;2022-09-14T06:29:40;99349.00;;;24.00;69.25
55576;BME280;41437;45.478;9.116;2022-09-14T06:32:42;99345.91;;;23.90;69.43
55576;BME280;41437;45.478;9.116;2022-09-14T06:35:54;99358.34;;;23.73;70.44
55576;BME280;41437;45.478;9.116;2022-09-14T06:38:57;99373.75;;;23.79;69.51
55576;BME280;41437;45.478;9.116;2022-09-14T06:41:59;99380.03;;;23.88;69.51
55576;BME280;41437;45.478;9.116;2022-09-14T06:45:01;99391.38;;;23.92;69.27
55576;BME280;41437;45.478;9.116;2022-09-14T06:48:03;99388.41;;;24.00;68.89
55576;BME280;41437;45.478;9.116;2022-09-14T06:51:17;99384.94;;;24.07;68.46
55576;BME280;41437;45.478;9.116;2022-09-14T06:54:18;99393.16;;;24.12;68.36
55576;BME280;41437;45.478;9.116;2022-09-14T06:57:20;99407.75;;;24.18;68.20
55576;BME280;41437;45.478;9.116;2022-09-14T07:00:21;99399.47;;;24.25;68.04
55576;BME280;41437;45.478;9.116;2022-09-14T07:03:23;99386.44;;;24.48;67.45
55576;BME280;41437;45.478;9.116;2022-09-14T07:06:28;99379.97;;;24.48;67.20
55576;BME280;41437;45.478;9.116;2022-09-14T07:09:30;99422.56;;;24.62;66.92
55576;BME280;41437;45.478;9.116;2022-09-14T07:12:31;99438.03;;;24.52;67.55
55576;BME280;41437;45.478;9.116;2022-09-14T07:15:33;99450.28;;;24.44;67.76
55576;BME280;41437;45.478;9.116;2022-09-14T07:18:35;99467.72;;;24.50;67.68
55576;BME280;41437;45.478;9.116;2022-09-14T07:21:38;99480.59;;;24.35;68.15
55576;BME280;41437;45.478;9.116;2022-09-14T07:24:40;99484.19;;;24.20;69.00
55576;BME280;41437;45.478;9.116;2022-09-14T07:27:41;99476.78;;;24.27;68.28
55576;BME280;41437;45.478;9.116;2022-09-14T07:30:43;99491.66;;;24.28;68.31
55576;BME280;41437;45.478;9.116;2022-09-14T07:33:45;99499.25;;;24.40;67.75
55576;BME280;41437;45.478;9.116;2022-09-14T07:36:49;99504.13;;;24.27;68.52
55576;BME280;41437;45.478;9.116;2022-09-14T07:39:53;99506.19;;;24.14;69.43
55576;BME280;41437;45.478;9.116;2022-09-14T07:42:56;99493.63;;;24.12;69.36
55576;BME280;41437;45.478;9.116;2022-09-14T07:46:00;99490.25;;;24.34;68.52
55576;BME280;41437;45.478;9.116;2022-09-14T07:49:02;99494.22;;;24.33;68.27
55576;BME280;41437;45.478;9.116;2022-09-14T07:52:06;99506.34;;;24.65;67.22
55576;BME280;41437;45.478;9.116;2022-09-14T07:55:08;99506.81;;;24.51;68.18
55576;BME280;41437;45.478;9.116;2022-09-14T07:58:11;99516.19;;;24.55;67.19
55576;BME280;41437;45.478;9.116;2022-09-14T08:01:14;99514.59;;;24.42;68.03
55576;BME280;41437;45.478;9.116;2022-09-14T08:04:17;99520.78;;;24.20;68.39
55576;BME280;41437;45.478;9.116;2022-09-14T08:07:19;99541.69;;;24.19;69.03
55576;BME280;41437;45.478;9.116;2022-09-14T08:10:21;99550.28;;;24.10;69.38
55576;BME280;41437;45.478;9.116;2022-09-14T08:13:25;99554.66;;;24.07;69.47
55576;BME280;41437;45.478;9.116;2022-09-14T08:16:28;99561.19;;;24.12;69.06
55576;BME280;41437;45.478;9.116;2022-09-14T08:19:33;99562.31;;;24.23;68.30
55576;BME280;41437;45.478;9.116;2022-09-14T08:22:38;99559.59;;;23.98;70.61
55576;BME280;41437;45.478;9.116;2022-09-14T08:25:39;99564.69;;;23.80;71.15
55576;BME280;41437;45.478;9.116;2022-09-14T08:28:41;99575.38;;;23.75;72.21
55576;BME280;41437;45.478;9.116;2022-09-14T08:31:44;99580.13;;;23.99;70.51
55576;BME280;41437;45.478;9.116;2022-09-14T08:34:46;99578.59;;;24.01;70.23
55576;BME280;41437;45.478;9.116;2022-09-14T08:37:49;99589.09;;;23.76;72.24
55576;BME280;41437;45.478;9.116;2022-09-14T08:40:54;99585.13;;;23.77;72.33
55576;BME280;41437;45.478;9.116;2022-09-14T08:43:59;99598.41;;;23.65;72.78
55576;BME280;41437;45.478;9.116;2022-09-14T08:47:04;99595.25;;;23.94;70.73
55576;BME280;41437;45.478;9.116;2022-09-14T08:50:12;99582.88;;;24.11;70.41
55576;BME280;41437;45.478;9.116;2022-09-14T08:53:21;99576.44;;;24.11;70.25
55576;BME280;41437;45.478;9.116;2022-09-14T08:56:29;99567.28;;;24.14;70.22
55576;BME280;41437;45.478;9.116;2022-09-14T08:59:42;99573.78;;;24.30;69.69
55576;BME280;41437;45.478;9.116;2022-09-14T09:06:10;99546.69;;;24.85;67.72
55576;BME280;41437;45.478;9.116;2022-09-14T09:09:26;99526.59;;;25.02;67.88
55576;BME280;41437;45.478;9.116;2022-09-14T09:12:35;99514.06;;;25.16;66.84
55576;BME280;41437;45.478;9.116;2022-09-14T09:15:42;99511.28;;;25.35;65.04
55576;BME280;41437;45.478;9.116;2022-09-14T09:18:45;99501.91;;;25.47;64.81
55576;BME280;41437;45.478;9.116;2022-09-14T09:21:49;99493.13;;;25.52;64.34
55576;BME280;41437;45.478;9.116;2022-09-14T09:24:53;99476.94;;;25.49;65.21
55576;BME280;41437;45.478;9.116;2022-09-14T09:28:00;99457.84;;;25.23;66.98
55576;BME280;41437;45.478;9.116;2022-09-14T09:31:05;99438.69;;;25.13;65.62
55576;BME280;41437;45.478;9.116;2022-09-14T09:34:09;99423.69;;;25.09;66.40
55576;BME280;41437;45.478;9.116;2022-09-14T09:37:13;99400.56;;;25.19;64.74
55576;BME280;41437;45.478;9.116;2022-09-14T09:40:18;99382.75;;;25.34;63.64
55576;BME280;41437;45.478;9.116;2022-09-14T09:43:21;99363.38;;;25.32;64.61
55576;BME280;41437;45.478;9.116;2022-09-14T09:46:23;99348.75;;;25.46;63.10
55576;BME280;41437;45.478;9.116;2022-09-14T09:49:28;99329.06;;;25.50;62.16
55576;BME280;41437;45.478;9.116;2022-09-14T09:52:31;99329.66;;;25.78;61.08
55576;BME280;41437;45.478;9.116;2022-09-14T09:55:37;99326.38;;;25.99;60.23
55576;BME280;41437;45.478;9.116;2022-09-14T09:58:39;99347.88;;;26.07;60.75
55576;BME280;41437;45.478;9.116;2022-09-14T10:01:41;99360.38;;;26.06;60.00
55576;BME280;41437;45.478;9.116;2022-09-14T10:04:55;99377.38;;;25.87;60.39
55576;BME280;41437;45.478;9.116;2022-09-14T10:07:59;99385.19;;;25.55;62.09
55576;BME280;41437;45.478;9.116;2022-09-14T10:11:02;99399.88;;;25.45;61.90
55576;BME280;41437;45.478;9.116;2022-09-14T10:14:05;99400.34;;;25.27;62.77
55576;BME280;41437;45.478;9.116;2022-09-14T10:17:21;99382.13;;;25.25;63.05
55576;BME280;41437;45.478;9.116;2022-09-14T10:20:24;99381.88;;;25.30;63.47
55576;BME280;41437;45.478;9.116;2022-09-14T10:23:29;99382.94;;;25.64;62.04
55576;BME280;41437;45.478;9.116;2022-09-14T10:26:35;99382.34;;;25.74;61.61
55576;BME280;41437;45.478;9.116;2022-09-14T10:29:38;99382.38;;;25.97;59.79
55576;BME280;41437;45.478;9.116;2022-09-14T10:32:55;99367.22;;;26.05;60.26
55576;BME280;41437;45.478;9.116;2022-09-14T10:36:08;99345.41;;;26.29;59.30
55576;BME280;41437;45.478;9.116;2022-09-14T10:39:17;99308.09;;;26.66;58.09
55576;BME280;41437;45.478;9.116;2022-09-14T10:42:29;99292.28;;;26.91;57.14
55576;BME280;41437;45.478;9.116;2022-09-14T10:45:34;99276.38;;;27.10;56.03
55576;BME280;41437;45.478;9.116;2022-09-14T10:52:11;99274.88;;;27.60;53.98
55576;BME280;41437;45.478;9.116;2022-09-14T10:55:26;99279.41;;;27.65;54.78
55576;BME280;41437;45.478;9.116;2022-09-14T10:58:47;99265.41;;;27.79;53.57
55576;BME280;41437;45.478;9.116;2022-09-14T11:05:20;99271.75;;;28.17;52.46
55576;BME280;41437;45.478;9.116;2022-09-14T11:08:27;99267.78;;;28.25;52.90
55576;BME280;41437;45.478;9.116;2022-09-14T11:11:39;99272.78;;;28.39;52.45
55576;BME280;41437;45.478;9.116;2022-09-14T11:14:56;99266.50;;;28.15;52.76
55576;BME280;41437;45.478;9.116;2022-09-14T11:18:07;99263.59;;;28.04;52.89
55576;BME280;41437;45.478;9.116;2022-09-14T11:21:21;99254.31;;;28.04;52.67
55576;BME280;41437;45.478;9.116;2022-09-14T11:24:34;99265.63;;;27.63;53.50
55576;BME280;41437;45.478;9.116;2022-09-14T11:27:41;99268.69;;;27.44;55.10
55576;BME280;41437;45.478;9.116;2022-09-14T11:30:50;99262.00;;;27.63;53.09
55576;BME280;41437;45.478;9.116;2022-09-14T11:33:58;99259.78;;;27.86;52.46
55576;BME280;41437;45.478;9.116;2022-09-14T11:37:05;99262.38;;;28.05;52.08
55576;BME280;41437;45.478;9.116;2022-09-14T11:40:15;99275.94;;;28.30;51.84
55576;BME280;41437;45.478;9.116;2022-09-14T11:43:20;99289.94;;;28.64;51.18
55576;BME280;41437;45.478;9.116;2022-09-14T11:46:30;99293.84;;;29.14;48.89
55576;BME280;41437;45.478;9.116;2022-09-14T11:49:42;99307.84;;;28.82;48.98
55576;BME280;41437;45.478;9.116;2022-09-14T11:52:45;99308.13;;;28.59;50.61
55576;BME280;41437;45.478;9.116;2022-09-14T11:55:49;99313.47;;;28.20;52.92
55576;BME280;41437;45.478;9.116;2022-09-14T11:58:53;99314.09;;;27.99;51.96
55576;BME280;41437;45.478;9.116;2022-09-14T12:05:52;99309.84;;;27.75;52.92
55576;BME280;41437;45.478;9.116;2022-09-14T12:08:54;99291.00;;;27.93;53.15
55576;BME280;41437;45.478;9.116;2022-09-14T12:12:37;99298.31;;;27.98;52.87
55576;BME280;41437;45.478;9.116;2022-09-14T12:15:39;99319.09;;;28.13;52.17
55576;BME280;41437;45.478;9.116;2022-09-14T12:18:42;99325.09;;;28.04;53.30
55576;BME280;41437;45.478;9.116;2022-09-14T12:21:46;99315.19;;;28.31;51.59
55576;BME280;41437;45.478;9.116;2022-09-14T12:24:57;99308.91;;;28.52;51.47
55576;BME280;41437;45.478;9.116;2022-09-14T12:28:00;99298.78;;;28.55;50.35
55576;BME280;41437;45.478;9.116;2022-09-14T12:31:09;99309.13;;;28.33;51.49
55576;BME280;41437;45.478;9.116;2022-09-14T12:34:17;99312.59;;;28.09;52.22
55576;BME280;41437;45.478;9.116;2022-09-14T12:37:30;99314.47;;;27.94;52.35
55576;BME280;41437;45.478;9.116;2022-09-14T12:40:34;99302.47;;;27.67;53.27
55576;BME280;41437;45.478;9.116;2022-09-14T12:43:58;99291.69;;;27.42;54.65
55576;BME280;41437;45.478;9.116;2022-09-14T12:50:35;99297.66;;;27.34;54.74
55576;BME280;41437;45.478;9.116;2022-09-14T12:53:42;99295.97;;;27.29;55.21
55576;BME280;41437;45.478;9.116;2022-09-14T12:56:51;99296.88;;;27.37;54.70
55576;BME280;41437;45.478;9.116;2022-09-14T13:00:04;99296.47;;;27.35;54.98
55576;BME280;41437;45.478;9.116;2022-09-14T13:03:36;99305.88;;;27.46;54.87
55576;BME280;41437;45.478;9.116;2022-09-14T13:06:44;99297.63;;;27.30;55.23
55576;BME280;41437;45.478;9.116;2022-09-14T13:09:48;99299.31;;;27.38;54.93
55576;BME280;41437;45.478;9.116;2022-09-14T13:12:51;99299.44;;;27.49;54.72
55576;BME280;41437;45.478;9.116;2022-09-14T13:15:58;99300.22;;;27.46;54.71
55576;BME280;41437;45.478;9.116;2022-09-14T13:19:01;99289.66;;;27.39;55.86
55576;BME280;41437;45.478;9.116;2022-09-14T13:22:16;99296.31;;;27.58;54.80
55576;BME280;41437;45.478;9.116;2022-09-14T13:25:30;99297.22;;;27.69;54.22
55576;BME280;41437;45.478;9.116;2022-09-14T13:28:33;99291.78;;;27.87;52.83
55576;BME280;41437;45.478;9.116;2022-09-14T13:31:37;99276.78;;;27.83;53.67
55576;BME280;41437;45.478;9.116;2022-09-14T13:34:39;99266.25;;;27.83;52.96
55576;BME280;41437;45.478;9.116;2022-09-14T13:37:41;99273.66;;;27.58;53.83
55576;BME280;41437;45.478;9.116;2022-09-14T13:40:43;99272.81;;;27.53;54.39
55576;BME280;41437;45.478;9.116;2022-09-14T13:43:45;99268.69;;;27.44;54.15
55576;BME280;41437;45.478;9.116;2022-09-14T13:46:48;99243.84;;;27.26;55.12
55576;BME280;41437;45.478;9.116;2022-09-14T13:49:51;99236.88;;;27.17;55.82
55576;BME280;41437;45.478;9.116;2022-09-14T13:52:53;99230.56;;;27.30;54.99
55576;BME280;41437;45.478;9.116;2022-09-14T13:55:55;99222.06;;;27.30;54.92
55576;BME280;41437;45.478;9.116;2022-09-14T13:59:14;99228.44;;;27.24;54.53
55576;BME280;41437;45.478;9.116;2022-09-14T14:02:17;99224.91;;;26.97;55.78
55576;BME280;41437;45.478;9.116;2022-09-14T14:05:21;99234.94;;;26.94;56.31
55576;BME280;41437;45.478;9.116;2022-09-14T14:08:30;99238.78;;;26.75;56.33
55576;BME280;41437;45.478;9.116;2022-09-14T14:11:34;99237.81;;;26.64;57.38
55576;BME280;41437;45.478;9.116;2022-09-14T14:14:37;99236.22;;;26.67;57.24
55576;BME280;41437;45.478;9.116;2022-09-14T14:17:40;99234.69;;;26.73;57.20
55576;BME280;41437;45.478;9.116;2022-09-14T14:20:42;99231.41;;;26.67;57.31
55576;BME280;41437;45.478;9.116;2022-09-14T14:23:43;99231.44;;;26.71;57.56
55576;BME280;41437;45.478;9.116;2022-09-14T14:26:49;99248.09;;;26.79;57.42
55576;BME280;41437;45.478;9.116;2022-09-14T14:29:51;99242.66;;;26.97;56.61
55576;BME280;41437;45.478;9.116;2022-09-14T14:32:56;99235.09;;;27.05;56.54
55576;BME280;41437;45.478;9.116;2022-09-14T14:35:58;99227.81;;;27.04;56.20
55576;BME280;41437;45.478;9.116;2022-09-14T14:39:01;99224.44;;;26.91;56.70
55576;BME280;41437;45.478;9.116;2022-09-14T14:42:03;99215.09;;;26.87;57.58
55576;BME280;41437;45.478;9.116;2022-09-14T14:45:05;99227.41;;;27.05;56.54
55576;BME280;41437;45.478;9.116;2022-09-14T14:48:09;99236.41;;;27.11;56.40
55576;BME280;41437;45.478;9.116;2022-09-14T14:51:12;99225.28;;;26.95;56.17
55576;BME280;41437;45.478;9.116;2022-09-14T14:54:14;99226.88;;;26.93;57.62
55576;BME280;41437;45.478;9.116;2022-09-14T14:57:17;99228.84;;;26.89;57.29
55576;BME280;41437;45.478;9.116;2022-09-14T15:00:21;99217.19;;;26.94;57.14
55576;BME280;41437;45.478;9.116;2022-09-14T15:03:25;99219.44;;;26.81;57.28
55576;BME280;41437;45.478;9.116;2022-09-14T15:06:26;99216.22;;;26.79;58.09
55576;BME280;41437;45.478;9.116;2022-09-14T15:09:28;99210.22;;;26.84;57.79
55576;BME280;41437;45.478;9.116;2022-09-14T15:12:31;99201.38;;;26.89;57.22
55576;BME280;41437;45.478;9.116;2022-09-14T15:15:33;99190.06;;;26.89;57.14
55576;BME280;41437;45.478;9.116;2022-09-14T15:18:36;99193.72;;;26.90;56.97
55576;BME280;41437;45.478;9.116;2022-09-14T15:21:38;99179.31;;;26.65;58.35
55576;BME280;41437;45.478;9.116;2022-09-14T15:24:40;99174.75;;;26.56;57.90
55576;BME280;41437;45.478;9.116;2022-09-14T15:27:42;99188.75;;;26.79;58.01
55576;BME280;41437;45.478;9.116;2022-09-14T15:30:43;99192.13;;;26.92;57.42
55576;BME280;41437;45.478;9.116;2022-09-14T15:33:46;99168.41;;;27.00;57.49
55576;BME280;41437;45.478;9.116;2022-09-14T15:36:49;99166.34;;;26.97;57.05
55576;BME280;41437;45.478;9.116;2022-09-14T15:39:51;99176.09;;;27.03;57.49
55576;BME280;41437;45.478;9.116;2022-09-14T15:42:53;99171.63;;;27.02;57.43
55576;BME280;41437;45.478;9.116;2022-09-14T15:45:54;99160.69;;;26.97;57.30
55576;BME280;41437;45.478;9.116;2022-09-14T15:49:07;99157.75;;;26.87;57.31
55576;BME280;41437;45.478;9.116;2022-09-14T15:52:09;99152.47;;;26.85;57.16
55576;BME280;41437;45.478;9.116;2022-09-14T15:55:11;99149.63;;;26.85;58.33
55576;BME280;41437;45.478;9.116;2022-09-14T15:58:13;99148.78;;;26.81;57.46
55576;BME280;41437;45.478;9.116;2022-09-14T16:01:16;99147.63;;;26.86;57.71
55576;BME280;41437;45.478;9.116;2022-09-14T16:07:40;99139.16;;;26.86;57.77
55576;BME280;41437;45.478;9.116;2022-09-14T16:10:41;99135.06;;;26.79;58.49
55576;BME280;41437;45.478;9.116;2022-09-14T16:13:43;99132.13;;;26.69;58.11
55576;BME280;41437;45.478;9.116;2022-09-14T16:16:44;99121.50;;;26.59;58.86
55576;BME280;41437;45.478;9.116;2022-09-14T16:19:48;99131.06;;;26.50;58.62
55576;BME280;41437;45.478;9.116;2022-09-14T16:22:50;99125.28;;;26.40;59.05
55576;BME280;41437;45.478;9.116;2022-09-14T16:25:52;99125.81;;;26.19;59.28
55576;BME280;41437;45.478;9.116;2022-09-14T16:28:54;99119.66;;;26.10;59.92
55576;BME280;41437;45.478;9.116;2022-09-14T16:31:56;99126.38;;;26.01;60.81
55576;BME280;41437;45.478;9.116;2022-09-14T16:35:00;99130.34;;;25.97;61.06
55576;BME280;41437;45.478;9.116;2022-09-14T16:38:01;99130.81;;;26.02;60.77